Time;durP1;ratioP1;P1;durP2;ratioP2;P2;SDS_P1;SDS_P2;PMS_P1;PMS_P2;Temp;Humidity;BMP_temperature;BMP_pressure;BME280_temperature;BME280_humidity;BME280_pressure;Samples;Min_cycle;Max_cycle;Signal;HPM_P1;HPM_P2
2023/03/07 00:00:56;;;;;;;13.67;6.63;;;;;;;4.75;nan;-23949.16;5032680;28;20201;-76
2023/03/07 00:03:22;;;;;;;13.93;6.17;;;;;;;4.72;nan;-23948.44;5032927;28;20217;-73
2023/03/07 00:05:47;;;;;;;9.50;5.87;;;;;;;4.83;nan;-23951.44;5033450;28;20233;-73
2023/03/07 00:08:13;;;;;;;18.53;7.17;;;;;;;4.66;nan;-23946.75;5032486;28;20175;-75
2023/03/07 00:10:38;;;;;;;10.50;6.00;;;;;;;4.18;nan;-23933.22;5048072;28;20630;-71
2023/03/07 00:13:04;;;;;;;9.63;5.57;;;;;;;4.61;nan;-23945.31;5031401;28;20188;-73
2023/03/07 00:15:30;;;;;;;9.60;5.33;;;;;;;4.44;nan;-23940.63;5031945;28;20183;-73
2023/03/07 00:17:56;;;;;;;9.00;4.77;;;;;;;4.26;nan;-23935.50;5034760;28;20171;-73
2023/03/07 00:20:21;;;;;;;29.60;6.13;;;;;;;4.30;nan;-23936.63;5035055;28;20197;-76
2023/03/07 00:22:47;;;;;;;13.77;5.73;;;;;;;4.10;nan;-23930.94;5033853;28;20179;-74
2023/03/07 00:25:13;;;;;;;16.90;6.13;;;;;;;3.98;nan;-23927.66;5033169;28;20267;-75
2023/03/07 00:27:40;;;;;;;9.33;5.97;;;;;;;3.82;nan;-23922.97;5032757;28;20190;-74
2023/03/07 00:30:05;;;;;;;10.23;6.53;;;;;;;4.12;nan;-23931.50;5032841;28;20646;-71
2023/03/07 00:32:31;;;;;;;10.97;5.60;;;;;;;3.78;nan;-23921.97;5032254;28;20213;-73
2023/03/07 00:34:58;;;;;;;13.53;6.33;;;;;;;4.05;nan;-23929.38;5031814;28;20183;-75
2023/03/07 00:37:24;;;;;;;9.07;5.90;;;;;;;4.01;nan;-23928.38;5032880;28;20363;-74
2023/03/07 00:39:49;;;;;;;11.47;5.40;;;;;;;3.99;nan;-23927.81;5032506;28;20735;-74
2023/03/07 00:42:15;;;;;;;9.90;5.83;;;;;;;3.88;nan;-23924.66;5031995;28;20167;-73
2023/03/07 00:44:40;;;;;;;15.87;5.07;;;;;;;3.81;nan;-23922.81;5030755;28;20183;-72
2023/03/07 00:47:06;;;;;;;10.93;5.67;;;;;;;3.51;nan;-23914.41;5031830;28;20184;-75
2023/03/07 00:49:31;;;;;;;13.67;5.90;;;;;;;3.39;nan;-23910.97;5031346;28;20176;-74
2023/03/07 00:51:58;;;;;;;28.53;6.40;;;;;;;3.36;nan;-23910.00;5031960;28;20174;-73
2023/03/07 00:54:23;;;;;;;13.97;5.27;;;;;;;3.70;nan;-23919.69;5031159;28;20336;-74
2023/03/07 00:56:49;;;;;;;14.97;6.10;;;;;;;3.62;nan;-23917.41;5031899;28;20497;-73
2023/03/07 00:59:14;;;;;;;10.53;5.23;;;;;;;3.74;nan;-23920.81;5031279;28;20191;-74
2023/03/07 01:01:40;;;;;;;13.17;5.73;;;;;;;3.79;nan;-23922.25;5029950;28;20213;-72
2023/03/07 01:04:05;;;;;;;10.07;5.10;;;;;;;3.76;nan;-23921.25;5031175;28;20175;-73
2023/03/07 01:06:32;;;;;;;12.87;5.37;;;;;;;3.50;nan;-23913.97;5031761;28;20178;-75
2023/03/07 01:09:03;;;;;;;11.53;6.57;;;;;;;3.82;nan;-23923.09;5032590;28;20191;-73
2023/03/07 01:11:29;;;;;;;13.27;4.93;;;;;;;3.82;nan;-23923.09;5030265;28;20545;-74
2023/03/07 01:14:00;;;;;;;13.70;6.23;;;;;;;3.59;nan;-23916.53;5031279;28;20180;-72
2023/03/07 01:16:30;;;;;;;10.17;6.37;;;;;;;3.76;nan;-23921.25;5031632;28;20183;-73
2023/03/07 01:18:59;;;;;;;12.43;6.10;;;;;;;4.00;nan;-23928.09;5031718;28;20167;-72
2023/03/07 01:21:30;;;;;;;12.20;5.47;;;;;;;3.90;nan;-23925.22;5030158;28;20674;-73
2023/03/07 01:23:56;;;;;;;10.93;5.97;;;;;;;3.64;nan;-23917.97;5034681;28;20178;-75
2023/03/07 01:26:24;;;;;;;10.27;5.90;;;;;;;3.88;nan;-23924.81;5035531;28;20563;-71
2023/03/07 01:28:51;;;;;;;11.00;5.90;;;;;;;3.71;nan;-23919.97;5034036;28;20229;-74
2023/03/07 01:31:16;;;;;;;10.03;5.50;;;;;;;3.62;nan;-23917.41;5034973;28;20251;-74
2023/03/07 01:33:42;;;;;;;11.47;6.07;;;;;;;3.62;nan;-23917.25;5035687;28;20673;-73
2023/03/07 01:36:21;;;;;;;10.87;5.40;;;;;;;3.66;nan;-23918.41;5035941;28;20176;-73
2023/03/07 01:38:48;;;;;;;11.37;5.87;;;;;;;3.29;nan;-23908.13;5033871;28;20705;-75
2023/03/07 01:41:13;;;;;;;9.87;6.67;;;;;;;3.28;nan;-23907.84;5050072;28;20246;-72
2023/03/07 01:43:39;;;;;;;8.57;4.80;;;;;;;3.33;nan;-23909.28;5034993;28;20262;-76
2023/03/07 01:46:16;;;;;;;12.50;6.37;;;;;;;3.25;nan;-23907.00;5035167;28;20223;-73
2023/03/07 01:48:43;;;;;;;7.67;4.60;;;;;;;2.84;nan;-23895.28;5034966;28;20171;-74
2023/03/07 01:51:09;;;;;;;11.13;6.30;;;;;;;2.77;nan;-23893.31;5034897;28;20657;-71
2023/03/07 01:53:36;;;;;;;7.60;5.60;;;;;;;2.56;nan;-23887.59;5034959;28;20175;-72
2023/03/07 01:56:01;;;;;;;7.87;5.27;;;;;;;2.16;nan;-23876.16;5033037;28;20235;-76
2023/03/07 01:58:26;;;;;;;9.03;5.00;;;;;;;2.40;nan;-23883.03;5033947;28;20275;-73
2023/03/07 02:00:52;;;;;;;8.60;6.33;;;;;;;2.55;nan;-23887.31;5034693;28;20286;-75
2023/03/07 02:03:38;;;;;;;14.37;5.77;;;;;;;2.65;nan;-23890.16;5049615;28;20266;-73
2023/03/07 02:06:08;;;;;;;14.83;5.30;;;;;;;2.47;nan;-23885.03;5033689;28;20182;-74
2023/03/07 02:08:35;;;;;;;11.77;5.30;;;;;;;2.18;nan;-23876.75;5034406;28;20502;-72
2023/03/07 02:11:01;;;;;;;9.00;4.87;;;;;;;2.53;nan;-23886.59;5034585;28;20287;-73
2023/03/07 02:13:26;;;;;;;10.30;4.93;;;;;;;2.53;nan;-23886.59;5035081;28;20183;-72
2023/03/07 02:15:52;;;;;;;7.37;4.30;;;;;;;2.36;nan;-23881.75;5034467;28;20233;-73
2023/03/07 02:18:23;;;;;;;8.70;4.80;;;;;;;2.09;nan;-23874.16;5033363;28;20183;-72
2023/03/07 02:21:11;;;;;;;8.07;5.37;;;;;;;2.16;nan;-23876.31;5049545;28;20704;-74
2023/03/07 02:24:02;;;;;;;7.90;4.90;;;;;;;2.33;nan;-23881.03;5034616;28;20642;-72
2023/03/07 02:26:27;;;;;;;15.77;5.60;;;;;;;2.52;nan;-23886.31;5033605;28;20179;-73
2023/03/07 02:28:53;;;;;;;10.97;5.23;;;;;;;2.29;nan;-23879.88;5034286;28;20196;-75
2023/03/07 02:31:18;;;;;;;9.33;5.33;;;;;;;2.51;nan;-23886.03;5034074;28;20674;-73
2023/03/07 02:33:44;;;;;;;12.53;5.77;;;;;;;2.60;nan;-23888.72;5033984;28;20175;-73
2023/03/07 02:36:17;;;;;;;14.67;5.57;;;;;;;2.53;nan;-23886.75;5032435;28;20188;-74
2023/03/07 02:38:45;;;;;;;8.23;4.73;;;;;;;2.07;nan;-23873.75;5032525;28;20180;-74
2023/03/07 02:41:11;;;;;;;11.17;5.97;;;;;;;2.21;nan;-23877.59;5049497;28;20211;-74
2023/03/07 02:43:37;;;;;;;6.43;4.37;;;;;;;2.31;nan;-23880.47;5032672;28;20646;-74
2023/03/07 02:46:03;;;;;;;11.20;5.67;;;;;;;2.40;nan;-23883.03;5033590;28;20233;-73
2023/03/07 02:48:28;;;;;;;8.83;4.80;;;;;;;2.46;nan;-23884.75;5033959;28;20178;-73
2023/03/07 02:50:54;;;;;;;9.13;5.03;;;;;;;2.48;nan;-23885.31;5032543;28;20187;-72
2023/03/07 02:53:19;;;;;;;12.03;6.10;;;;;;;2.20;nan;-23877.31;5033923;28;20251;-73
2023/03/07 02:55:45;;;;;;;7.63;4.73;;;;;;;2.39;nan;-23882.59;5034034;28;20222;-73
2023/03/07 02:58:10;;;;;;;8.10;4.73;;;;;;;2.53;nan;-23886.75;5034175;28;20172;-75
2023/03/07 03:00:36;;;;;;;14.57;5.53;;;;;;;2.13;nan;-23875.47;5048454;28;20205;-73
2023/03/07 03:03:01;;;;;;;7.43;4.73;;;;;;;2.44;nan;-23884.03;5031823;28;20183;-72
2023/03/07 03:05:26;;;;;;;6.50;4.23;;;;;;;2.18;nan;-23876.75;5033750;28;20178;-72
2023/03/07 03:07:52;;;;;;;9.37;5.17;;;;;;;2.05;nan;-23873.03;5032134;28;20179;-73
2023/03/07 03:10:17;;;;;;;12.80;5.57;;;;;;;2.42;nan;-23883.59;5048879;28;20201;-73
2023/03/07 03:12:43;;;;;;;9.03;4.67;;;;;;;2.31;nan;-23880.31;5033761;28;20185;-74
2023/03/07 03:15:09;;;;;;;6.43;4.37;;;;;;;2.32;nan;-23880.75;5021146;28;20182;-72
2023/03/07 03:17:34;;;;;;;7.80;4.47;;;;;;;2.41;nan;-23883.31;5013071;28;20184;-73
2023/03/07 03:20:00;;;;;;;11.73;5.77;;;;;;;2.34;nan;-23881.31;5012880;28;20186;-72
2023/03/07 03:22:26;;;;;;;9.50;4.40;;;;;;;2.27;nan;-23879.31;5013666;28;20640;-72
2023/03/07 03:24:51;;;;;;;7.27;5.60;;;;;;;2.03;nan;-23872.47;5013572;28;20262;-74
2023/03/07 03:27:16;;;;;;;9.90;4.63;;;;;;;2.52;nan;-23886.44;5013468;28;20172;-74
2023/03/07 03:29:42;;;;;;;9.93;3.77;;;;;;;2.36;nan;-23881.88;5012904;28;20176;-72
2023/03/07 03:32:08;;;;;;;15.17;6.50;;;;;;;2.42;nan;-23883.59;5013039;28;20168;-73
2023/03/07 03:34:33;;;;;;;11.73;4.93;;;;;;;2.42;nan;-23883.59;5013344;28;20214;-72
2023/03/07 03:36:58;;;;;;;10.73;5.20;;;;;;;2.15;nan;-23875.88;5013943;28;20648;-74
2023/03/07 03:39:24;;;;;;;11.73;5.03;;;;;;;2.26;nan;-23879.03;5012175;28;20187;-71
2023/03/07 03:41:49;;;;;;;9.50;5.57;;;;;;;2.23;nan;-23878.31;5011602;28;20218;-74
2023/03/07 03:44:15;;;;;;;10.50;4.47;;;;;;;2.14;nan;-23875.75;5013015;28;20207;-72
2023/03/07 03:46:40;;;;;;;9.43;5.23;;;;;;;2.39;nan;-23882.75;5012022;28;20172;-73
2023/03/07 03:49:06;;;;;;;11.37;5.53;;;;;;;2.12;nan;-23875.16;5011664;28;20537;-73
2023/03/07 03:51:31;;;;;;;7.67;4.77;;;;;;;2.39;nan;-23882.59;5013428;28;20591;-72
2023/03/07 03:53:57;;;;;;;9.57;4.00;;;;;;;2.18;nan;-23876.88;5012682;28;20185;-72
2023/03/07 03:56:24;;;;;;;12.97;5.93;;;;;;;2.49;nan;-23885.59;5012676;28;20695;-74
2023/03/07 03:58:52;;;;;;;7.40;4.57;;;;;;;2.34;nan;-23881.31;5012838;28;20176;-74
2023/03/07 04:01:19;;;;;;;14.43;5.30;;;;;;;2.34;nan;-23881.31;5011821;28;20219;-76
2023/03/07 04:03:47;;;;;;;8.47;5.53;;;;;;;2.27;nan;-23879.31;5013995;28;20198;-75
2023/03/07 04:06:17;;;;;;;17.53;6.57;;;;;;;2.52;nan;-23886.44;5013085;28;20297;-74
2023/03/07 04:08:43;;;;;;;15.10;6.17;;;;;;;2.54;nan;-23887.03;5011283;28;20530;-72
2023/03/07 04:11:09;;;;;;;11.70;6.23;;;;;;;2.37;nan;-23882.16;5011334;28;20303;-73
2023/03/07 04:13:35;;;;;;;11.47;6.23;;;;;;;2.36;nan;-23881.88;5011199;28;20191;-73
2023/03/07 04:16:01;;;;;;;14.67;6.40;;;;;;;2.49;nan;-23885.59;5015176;28;20294;-72
2023/03/07 04:18:27;;;;;;;15.63;6.83;;;;;;;2.50;nan;-23885.72;5011533;28;20215;-75
2023/03/07 04:20:53;;;;;;;13.20;5.97;;;;;;;2.47;nan;-23884.88;5011141;28;20212;-71
2023/03/07 04:23:21;;;;;;;16.37;5.77;;;;;;;2.13;nan;-23875.31;5000265;28;20678;-73
2023/03/07 04:25:48;;;;;;;13.83;6.30;;;;;;;2.44;nan;-23884.16;4998007;28;20188;-73
2023/03/07 04:28:18;;;;;;;7.57;4.97;;;;;;;2.10;nan;-23874.47;4998939;28;20196;-75
2023/03/07 04:30:44;;;;;;;12.13;5.00;;;;;;;2.06;nan;-23873.31;4998610;28;20185;-73
2023/03/07 04:33:09;;;;;;;11.50;6.93;;;;;;;1.89;nan;-23868.59;5012895;28;20180;-72
2023/03/07 04:35:35;;;;;;;10.27;5.77;;;;;;;2.29;nan;-23879.88;4999307;28;20267;-73
2023/03/07 04:38:01;;;;;;;12.83;6.47;;;;;;;2.32;nan;-23880.75;5012596;28;20197;-73
2023/03/07 04:40:26;;;;;;;9.23;6.07;;;;;;;2.28;nan;-23879.59;4996684;28;20309;-76
2023/03/07 04:42:51;;;;;;;18.70;6.50;;;;;;;2.10;nan;-23874.47;5013091;28;20218;-72
2023/03/07 04:45:17;;;;;;;11.03;5.10;;;;;;;2.40;nan;-23882.88;4996330;28;20639;-73
2023/03/07 04:47:42;;;;;;;11.40;5.53;;;;;;;2.49;nan;-23885.59;5002759;28;20531;-73
2023/03/07 04:50:08;;;;;;;9.93;6.07;;;;;;;2.56;nan;-23887.59;4997598;28;20322;-76
2023/03/07 04:52:34;;;;;;;15.60;6.27;;;;;;;2.18;nan;-23876.88;4998163;28;20184;-74
2023/03/07 04:54:59;;;;;;;13.27;6.53;;;;;;;2.53;nan;-23886.75;4996528;28;20235;-75
2023/03/07 04:57:25;;;;;;;15.47;6.50;;;;;;;2.53;nan;-23886.59;5001356;28;20188;-74
2023/03/07 04:59:50;;;;;;;12.10;6.23;;;;;;;2.12;nan;-23875.03;4996981;28;20271;-73
2023/03/07 05:02:16;;;;;;;14.60;6.00;;;;;;;2.33;nan;-23880.88;4997187;28;20184;-75
2023/03/07 05:04:41;;;;;;;12.40;6.13;;;;;;;2.28;nan;-23879.44;5012511;28;20180;-74
2023/03/07 05:07:07;;;;;;;10.20;5.83;;;;;;;2.37;nan;-23882.03;4997719;28;20583;-73
2023/03/07 05:09:33;;;;;;;9.17;5.43;;;;;;;2.42;nan;-23883.59;4997095;28;20678;-74
2023/03/07 05:11:58;;;;;;;14.37;6.83;;;;;;;2.33;nan;-23880.88;4996858;28;20185;-74
2023/03/07 05:14:24;;;;;;;8.73;5.07;;;;;;;2.55;nan;-23887.31;4997142;28;20192;-73
2023/03/07 05:16:50;;;;;;;14.37;6.73;;;;;;;2.86;nan;-23895.88;5014759;28;20551;-74
2023/03/07 05:19:16;;;;;;;9.70;5.30;;;;;;;2.82;nan;-23894.72;5011776;28;20184;-75
2023/03/07 05:21:42;;;;;;;10.33;6.37;;;;;;;2.94;nan;-23898.16;5011176;28;20705;-74
2023/03/07 05:24:09;;;;;;;12.63;7.20;;;;;;;3.11;nan;-23903.00;5005005;28;20250;-73
2023/03/07 05:26:34;;;;;;;13.70;6.33;;;;;;;3.17;nan;-23904.56;5009405;28;20632;-74
2023/03/07 05:29:00;;;;;;;13.67;5.77;;;;;;;3.07;nan;-23902.00;5011707;28;20176;-72
2023/03/07 05:31:25;;;;;;;8.67;5.60;;;;;;;2.96;nan;-23898.72;5010869;28;20634;-71
2023/03/07 05:33:51;;;;;;;8.57;5.70;;;;;;;3.01;nan;-23900.28;5011191;28;20183;-72
2023/03/07 05:36:16;;;;;;;10.53;5.80;;;;;;;2.80;nan;-23894.16;5010006;28;20242;-72
2023/03/07 05:38:42;;;;;;;26.30;7.07;;;;;;;3.16;nan;-23904.44;5011385;28;20172;-76
2023/03/07 05:41:08;;;;;;;21.27;6.90;;;;;;;3.08;nan;-23902.28;5009790;28;20618;-74
2023/03/07 05:43:33;;;;;;;13.83;5.87;;;;;;;2.85;nan;-23895.59;5026682;28;20184;-76
2023/03/07 05:45:58;;;;;;;15.50;7.27;;;;;;;2.94;nan;-23898.16;5023924;28;20315;-72
2023/03/07 05:48:24;;;;;;;17.20;7.33;;;;;;;3.22;nan;-23906.13;5006672;28;20678;-73
2023/03/07 05:50:49;;;;;;;20.50;8.67;;;;;;;3.46;nan;-23912.84;5011012;28;20572;-73
2023/03/07 05:53:15;;;;;;;15.93;8.07;;;;;;;3.75;nan;-23920.97;5011548;28;20179;-74
2023/03/07 05:55:40;;;;;;;14.57;7.80;;;;;;;3.59;nan;-23916.41;5010624;28;20768;-73
2023/03/07 05:58:06;;;;;;;17.43;6.97;;;;;;;3.37;nan;-23910.41;5026576;28;20291;-74
2023/03/07 06:00:31;;;;;;;10.20;6.17;;;;;;;3.66;nan;-23918.41;5010682;28;20203;-72
2023/03/07 06:03:01;;;;;;;17.73;7.37;;;;;;;3.59;nan;-23916.53;5008783;28;20655;-73
2023/03/07 06:05:27;;;;;;;12.23;6.93;;;;;;;3.56;nan;-23915.81;5009736;28;20184;-74
2023/03/07 06:07:52;;;;;;;10.10;5.97;;;;;;;3.75;nan;-23920.97;5011023;28;20169;-73
2023/03/07 06:10:17;;;;;;;9.87;6.07;;;;;;;3.66;nan;-23918.41;5021844;28;20572;-73
2023/03/07 06:12:43;;;;;;;11.63;5.87;;;;;;;3.51;nan;-23914.41;5024395;28;20188;-74
2023/03/07 06:15:09;;;;;;;8.20;5.10;;;;;;;3.79;nan;-23922.09;5022963;28;20283;-72
2023/03/07 06:17:34;;;;;;;9.83;5.37;;;;;;;3.85;nan;-23923.81;5021768;28;20199;-75
2023/03/07 06:20:00;;;;;;;6.67;5.13;;;;;;;3.75;nan;-23920.97;5018945;28;20655;-74
2023/03/07 06:22:25;;;;;;;8.10;5.27;;;;;;;3.44;nan;-23912.41;5015299;28;20191;-73
2023/03/07 06:24:50;;;;;;;12.83;6.00;;;;;;;3.66;nan;-23918.53;5013768;28;20237;-74
2023/03/07 06:27:16;;;;;;;9.73;5.87;;;;;;;3.65;nan;-23918.13;5012444;28;20194;-74
2023/03/07 06:29:41;;;;;;;9.20;5.40;;;;;;;3.60;nan;-23916.69;5013191;28;20262;-72
2023/03/07 06:32:07;;;;;;;10.90;5.57;;;;;;;4.05;nan;-23929.50;5014412;28;20302;-74
2023/03/07 06:34:32;;;;;;;9.97;5.60;;;;;;;4.42;nan;-23939.91;5014168;28;20172;-75
2023/03/07 06:36:58;;;;;;;9.57;4.57;;;;;;;4.73;nan;-23948.59;5012193;28;20176;-73
2023/03/07 06:39:25;;;;;;;16.53;5.83;;;;;;;4.62;nan;-23945.59;5028673;28;20188;-74
2023/03/07 06:41:52;;;;;;;6.77;5.17;;;;;;;4.85;nan;-23952.00;5012350;28;20230;-74
2023/03/07 06:44:17;;;;;;;10.47;5.27;;;;;;;5.16;nan;-23960.81;5012416;28;20661;-74
2023/03/07 06:46:44;;;;;;;12.10;4.50;;;;;;;5.02;nan;-23956.84;5013435;28;20180;-75
2023/03/07 06:49:10;;;;;;;11.23;5.03;;;;;;;5.10;nan;-23959.13;5013185;28;20184;-73
2023/03/07 06:51:35;;;;;;;9.47;4.87;;;;;;;5.43;nan;-23968.22;5013391;28;20531;-73
2023/03/07 06:54:01;;;;;;;7.70;5.07;;;;;;;5.63;nan;-23974.03;5027122;28;20632;-68
2023/03/07 06:56:28;;;;;;;8.20;5.00;;;;;;;5.51;nan;-23970.47;5013138;28;20215;-67
2023/03/07 06:58:54;;;;;;;8.33;4.90;;;;;;;6.22;nan;-23990.66;5013646;28;20544;-67
2023/03/07 07:01:21;;;;;;;9.33;5.97;;;;;;;6.53;nan;-23999.31;5013480;28;20203;-69
2023/03/07 07:03:47;;;;;;;11.20;5.50;;;;;;;6.54;nan;-23999.47;5013333;28;20211;-67
2023/03/07 07:06:14;;;;;;;9.90;4.77;;;;;;;6.86;nan;-24008.56;5013784;28;20211;-69
2023/03/07 07:08:39;;;;;;;11.00;4.93;;;;;;;6.84;nan;-24008.00;5013491;28;20180;-70
2023/03/07 07:11:05;;;;;;;7.23;5.50;;;;;;;7.22;nan;-24018.47;5013612;28;20183;-67
2023/03/07 07:13:30;;;;;;;13.07;5.40;;;;;;;7.26;nan;-24019.63;5013596;28;20172;-67
2023/03/07 07:15:57;;;;;;;7.57;4.73;;;;;;;7.25;nan;-24019.34;5012367;28;20631;-67
2023/03/07 07:18:22;;;;;;;11.67;6.00;;;;;;;7.73;nan;-24032.94;5013393;28;20172;-70
2023/03/07 07:20:55;;;;;;;9.73;5.17;;;;;;;7.74;nan;-24033.22;5014045;28;20207;-67
2023/03/07 07:23:21;;;;;;;8.90;5.83;;;;;;;7.73;nan;-24032.78;5014460;28;20172;-68
2023/03/07 07:25:46;;;;;;;13.90;7.10;;;;;;;8.31;nan;-24049.09;5016091;28;20247;-68
2023/03/07 07:28:11;;;;;;;9.03;5.13;;;;;;;8.22;nan;-24046.69;5012316;28;20179;-68
2023/03/07 07:30:37;;;;;;;7.87;5.23;;;;;;;8.45;nan;-24053.06;5013270;28;20666;-67
2023/03/07 07:33:02;;;;;;;10.13;6.07;;;;;;;8.90;nan;-24065.66;5012958;28;20173;-69
2023/03/07 07:35:28;;;;;;;9.60;6.37;;;;;;;8.71;nan;-24060.25;5012725;28;20179;-67
2023/03/07 07:37:53;;;;;;;10.47;5.23;;;;;;;8.86;nan;-24064.50;5011378;28;20183;-68
2023/03/07 07:40:19;;;;;;;13.57;6.30;;;;;;;9.38;nan;-24078.94;5012859;28;20207;-69
2023/03/07 07:42:53;;;;;;;12.85;6.10;;;;;;;9.57;nan;-24084.31;5013215;28;20214;-71
2023/03/07 07:45:19;;;;;;;9.98;5.90;;;;;;;9.65;nan;-24086.72;5012854;28;20251;-68
2023/03/07 07:47:48;;;;;;;11.55;6.30;;;;;;;9.42;nan;-24080.22;5012703;28;20199;-67
2023/03/07 07:50:14;;;;;;;12.63;5.93;;;;;;;10.00;nan;-24096.31;5012679;28;20263;-68
2023/03/07 07:52:39;;;;;;;12.18;6.43;;;;;;;9.96;nan;-24095.31;5012689;28;20612;-69
2023/03/07 07:55:05;;;;;;;13.55;6.72;;;;;;;9.91;nan;-24093.78;5012696;28;20224;-67
2023/03/07 07:57:30;;;;;;;14.30;6.90;;;;;;;9.97;nan;-24095.47;5012551;28;20601;-68
2023/03/07 07:59:55;;;;;;;13.77;6.90;;;;;;;10.14;nan;-24100.25;5012426;28;20266;-68
2023/03/07 08:02:21;;;;;;;13.77;7.18;;;;;;;9.97;nan;-24095.47;5012760;28;20627;-67
2023/03/07 08:04:46;;;;;;;11.27;6.47;;;;;;;10.42;nan;-24108.03;5012823;28;20227;-69
2023/03/07 08:07:13;;;;;;;14.30;6.97;;;;;;;10.20;nan;-24101.97;5011394;28;20179;-68
2023/03/07 08:09:38;;;;;;;12.57;6.95;;;;;;;10.54;nan;-24111.41;5012778;28;20223;-68
2023/03/07 08:12:04;;;;;;;12.40;6.95;;;;;;;10.26;nan;-24103.66;5013011;28;20184;-70
2023/03/07 08:14:33;;;;;;;10.80;6.65;;;;;;;10.75;nan;-24117.34;5012840;28;20218;-69
2023/03/07 08:16:58;;;;;;;12.38;6.68;;;;;;;10.90;nan;-24121.44;5012583;28;20227;-68
2023/03/07 08:19:24;;;;;;;12.75;6.90;;;;;;;10.66;nan;-24114.66;5012200;28;20173;-70
2023/03/07 08:21:49;;;;;;;13.88;6.32;;;;;;;11.17;nan;-24129.03;5012517;28;20200;-67
2023/03/07 08:24:14;;;;;;;14.93;6.78;;;;;;;10.84;nan;-24119.88;5012298;28;20230;-66
2023/03/07 08:26:40;;;;;;;13.60;7.15;;;;;;;11.11;nan;-24127.34;5012416;28;20180;-67
2023/03/07 08:29:05;;;;;;;13.15;6.72;;;;;;;11.33;nan;-24133.56;5012166;28;20172;-69
2023/03/07 08:31:31;;;;;;;13.23;6.75;;;;;;;11.69;nan;-24143.41;5012347;28;20236;-68
2023/03/07 08:33:56;;;;;;;11.73;6.50;;;;;;;11.74;nan;-24144.84;5011361;28;20179;-70
2023/03/07 08:36:21;;;;;;;11.30;6.40;;;;;;;11.66;nan;-24142.56;5012388;28;20190;-67
2023/03/07 08:38:52;;;;;;;11.57;6.30;;;;;;;12.01;nan;-24152.28;5027568;28;20686;-67
2023/03/07 08:41:19;;;;;;;11.50;6.65;;;;;;;11.98;nan;-24151.59;5010648;28;20215;-69
2023/03/07 08:43:44;;;;;;;12.23;6.68;;;;;;;11.64;nan;-24142.16;5011878;28;20682;-68
2023/03/07 08:46:10;;;;;;;16.42;7.00;;;;;;;11.98;nan;-24151.59;5012134;28;20168;-68
2023/03/07 08:48:35;;;;;;;11.77;5.93;;;;;;;11.68;nan;-24143.13;5011819;28;20163;-68
2023/03/07 08:51:09;;;;;;;12.98;6.97;;;;;;;12.02;nan;-24152.56;5010536;28;20183;-67
2023/03/07 08:53:35;;;;;;;12.85;7.03;;;;;;;12.19;nan;-24157.38;5010813;28;20623;-67
2023/03/07 08:56:06;;;;;;;14.32;6.65;;;;;;;12.36;nan;-24162.28;5011490;28;20318;-68
2023/03/07 08:58:31;;;;;;;13.93;6.75;;;;;;;12.35;nan;-24161.88;5012124;28;20247;-68
2023/03/07 09:00:57;;;;;;;15.02;6.75;;;;;;;12.55;nan;-24167.34;5011834;28;20295;-68
2023/03/07 09:03:22;;;;;;;12.35;6.25;;;;;;;12.73;nan;-24172.56;5011787;28;20674;-66
2023/03/07 09:05:48;;;;;;;11.00;5.55;;;;;;;12.76;nan;-24173.41;5012676;28;20730;-68
2023/03/07 09:08:13;;;;;;;12.95;6.53;;;;;;;12.96;nan;-24178.75;5012179;28;20584;-68
2023/03/07 09:10:39;;;;;;;15.07;7.28;;;;;;;13.00;nan;-24180.00;5011918;28;20334;-70
2023/03/07 09:13:04;;;;;;;13.50;6.75;;;;;;;13.16;nan;-24184.38;5012143;28;20175;-67
2023/03/07 09:15:29;;;;;;;17.10;7.47;;;;;;;13.11;nan;-24183.09;5011955;28;20175;-66
2023/03/07 09:17:55;;;;;;;14.93;6.97;;;;;;;13.40;nan;-24190.97;5011863;28;20721;-69
2023/03/07 09:20:21;;;;;;;11.40;6.18;;;;;;;13.42;nan;-24191.53;5011929;28;20214;-69
2023/03/07 09:22:46;;;;;;;13.82;6.30;;;;;;;13.32;nan;-24188.88;5011774;28;20172;-66
2023/03/07 09:25:12;;;;;;;13.10;6.43;;;;;;;13.37;nan;-24190.25;5011455;28;20172;-66
2023/03/07 09:27:38;;;;;;;16.20;6.50;;;;;;;12.93;nan;-24177.91;5026730;28;20164;-69
2023/03/07 09:30:04;;;;;;;16.85;6.80;;;;;;;12.46;nan;-24164.97;5011928;28;20187;-66
2023/03/07 09:32:32;;;;;;;12.07;5.95;;;;;;;13.02;nan;-24180.56;5012166;28;20235;-68
2023/03/07 09:34:58;;;;;;;12.45;6.30;;;;;;;13.00;nan;-24180.00;5011549;28;20164;-69
2023/03/07 09:37:23;;;;;;;11.63;6.60;;;;;;;13.54;nan;-24195.03;5011317;28;20187;-66
2023/03/07 09:39:49;;;;;;;18.00;6.47;;;;;;;13.69;nan;-24199.13;5011266;28;20262;-69
2023/03/07 09:42:35;;;;;;;8.93;5.38;;;;;;;13.20;nan;-24185.63;5011522;28;20191;-69
2023/03/07 09:45:09;;;;;;;9.40;6.15;;;;;;;13.39;nan;-24190.69;5011978;28;20176;-66
2023/03/07 09:48:14;;;;;;;13.00;6.15;;;;;;;13.51;nan;-24194.06;5015056;28;20178;-68
2023/03/07 09:50:48;;;;;;;9.40;5.35;;;;;;;13.81;nan;-24202.34;5013921;28;20628;-70
2023/03/07 09:53:45;;;;;;;12.65;6.45;;;;;;;13.87;nan;-24204.16;5014628;28;20168;-67
2023/03/07 09:56:18;;;;;;;13.05;6.20;;;;;;;14.13;nan;-24211.31;4441814;28;20220;-68
2023/03/07 09:58:50;;;;;;;16.48;5.82;;;;;;;14.34;nan;-24217.06;5014414;28;20671;-68
2023/03/07 10:01:22;;;;;;;8.13;5.18;;;;;;;14.61;nan;-24224.50;5014700;28;20314;-67
2023/03/07 10:03:59;;;;;;;9.98;5.32;;;;;;;14.28;nan;-24215.53;5014522;28;20184;-68
2023/03/07 10:06:38;;;;;;;10.63;5.40;;;;;;;14.33;nan;-24216.81;5014710;28;20174;-67
2023/03/07 10:09:10;;;;;;;8.88;4.93;;;;;;;14.51;nan;-24222.00;5014625;28;20186;-67
2023/03/07 10:11:57;;;;;;;10.52;4.65;;;;;;;14.88;nan;-24232.22;5046204;28;20552;-69
2023/03/07 10:14:36;;;;;;;10.63;5.38;;;;;;;14.39;nan;-24218.47;5014494;28;20175;-69
2023/03/07 10:17:10;;;;;;;8.60;4.82;;;;;;;14.79;nan;-24229.56;5014219;28;20167;-70
2023/03/07 10:19:53;;;;;;;11.30;5.18;;;;;;;14.89;nan;-24232.50;5014338;28;20173;-67
2023/03/07 10:22:47;;;;;;;9.60;5.13;;;;;;;14.54;nan;-24222.69;5014519;28;20172;-67
2023/03/07 10:25:38;;;;;;;10.15;4.28;;;;;;;15.18;nan;-24240.34;5014136;28;20171;-68
2023/03/07 10:28:27;;;;;;;8.82;4.47;;;;;;;15.44;nan;-24247.63;5014088;28;20266;-69
2023/03/07 10:31:38;;;;;;;9.85;4.72;;;;;;;14.80;nan;-24229.84;5013632;28;20176;-68
2023/03/07 10:34:17;;;;;;;7.32;3.60;;;;;;;14.60;nan;-24224.38;5012977;28;20212;-68
2023/03/07 10:36:48;;;;;;;6.72;3.88;;;;;;;14.32;nan;-24216.50;5013608;28;20555;-69
2023/03/07 10:39:29;;;;;;;7.70;4.22;;;;;;;14.91;nan;-24233.06;5046190;28;20187;-69
2023/03/07 10:41:55;;;;;;;9.30;4.55;;;;;;;15.28;nan;-24243.16;5013963;28;20215;-65
2023/03/07 10:44:21;;;;;;;9.20;5.13;;;;;;;14.80;nan;-24229.97;5013922;28;20168;-68
2023/03/07 10:46:58;;;;;;;11.57;5.22;;;;;;;14.67;nan;-24226.34;5013897;28;20172;-67
2023/03/07 10:49:28;;;;;;;11.10;5.18;;;;;;;14.78;nan;-24229.41;5013822;28;20187;-67
2023/03/07 10:52:32;;;;;;;13.85;5.70;;;;;;;15.58;nan;-24251.41;5013394;28;20203;-70
2023/03/07 10:55:48;;;;;;;10.30;5.53;;;;;;;15.77;nan;-24256.88;5013165;28;20221;-69
2023/03/07 10:58:19;;;;;;;8.80;4.78;;;;;;;15.56;nan;-24250.84;5001590;28;20219;-68
2023/03/07 11:00:57;;;;;;;10.07;4.95;;;;;;;16.00;nan;-24263.03;5013314;28;20702;-68
2023/03/07 11:03:44;;;;;;;13.43;5.88;;;;;;;16.08;nan;-24265.28;5013980;28;20258;-67
2023/03/07 11:06:32;;;;;;;9.38;4.95;;;;;;;16.10;nan;-24265.97;5013499;28;20226;-70
2023/03/07 11:09:24;;;;;;;7.80;4.70;;;;;;;16.23;nan;-24269.59;5012192;28;20258;-69
2023/03/07 11:11:58;;;;;;;17.85;5.20;;;;;;;16.00;nan;-24263.03;5014160;28;20203;-70
2023/03/07 11:14:26;;;;;;;12.93;5.85;;;;;;;15.48;nan;-24248.75;5013784;28;20210;-68
2023/03/07 11:16:59;;;;;;;10.10;5.88;;;;;;;15.80;nan;-24257.56;5013119;28;20275;-67
2023/03/07 11:19:30;;;;;;;10.80;5.70;;;;;;;15.93;nan;-24261.22;5013233;28;20242;-67
2023/03/07 11:21:57;;;;;;;9.15;5.00;;;;;;;16.09;nan;-24265.56;5013112;28;20234;-69
2023/03/07 11:24:35;;;;;;;8.02;4.63;;;;;;;16.10;nan;-24265.81;5013209;28;20172;-68
2023/03/07 11:27:00;;;;;;;7.28;4.10;;;;;;;16.27;nan;-24270.72;5013219;28;20291;-68
2023/03/07 11:29:27;;;;;;;7.10;3.95;;;;;;;15.96;nan;-24262.06;5013083;28;20692;-67
2023/03/07 11:32:03;;;;;;;8.57;4.80;;;;;;;16.45;nan;-24275.63;5013112;28;20176;-67
2023/03/07 11:34:34;;;;;;;7.05;4.07;;;;;;;16.16;nan;-24267.50;5013480;28;20666;-67
2023/03/07 11:37:23;;;;;;;6.78;3.95;;;;;;;16.24;nan;-24269.75;5013311;28;20713;-66
2023/03/07 11:40:02;;;;;;;7.75;3.70;;;;;;;15.85;nan;-24258.97;5016260;28;20212;-67
2023/03/07 11:42:40;;;;;;;7.28;4.45;;;;;;;16.17;nan;-24267.94;5012759;28;20176;-67
2023/03/07 11:45:15;;;;;;;10.02;5.85;;;;;;;16.32;nan;-24272.13;5013154;28;20175;-68
2023/03/07 11:48:13;;;;;;;8.63;4.82;;;;;;;16.51;nan;-24277.28;5012792;28;20182;-68